Time;durP1;ratioP1;P1;durP2;ratioP2;P2;SDS_P1;SDS_P2;PMS_P1;PMS_P2;Temp;Humidity;BMP_temperature;BMP_pressure;BME280_temperature;BME280_humidity;BME280_pressure;Samples;Min_cycle;Max_cycle;Signal;HPM_P1;HPM_P2
2021/04/30 04:59:10;;;;;;;13.00;10.08;;;;;;;10.72;70.45;99775.11;1842615;77;22537;-65
2021/04/30 05:01:39;;;;;;;13.90;10.13;;;;;;;10.76;70.17;99771.39;1812560;79;21355;-67
2021/04/30 05:04:10;;;;;;;11.18;9.95;;;;;;;10.88;69.72;99768.48;1794774;77;21125;-63
2021/04/30 05:06:38;;;;;;;12.93;9.95;;;;;;;11.00;69.54;99767.73;1780892;79;21364;-64
2021/04/30 05:09:07;;;;;;;12.15;9.73;;;;;;;11.11;69.14;99764.00;1786075;77;21684;-64
2021/04/30 05:11:37;;;;;;;12.10;9.45;;;;;;;11.28;68.91;99768.12;1784183;79;21661;-62
2021/04/30 05:14:06;;;;;;;12.30;9.00;;;;;;;11.44;68.15;99767.53;1780100;80;21455;-64
2021/04/30 05:16:34;;;;;;;15.48;9.83;;;;;;;11.59;67.67;99763.12;1720345;82;21363;-62
2021/04/30 05:19:11;;;;;;;15.20;8.55;;;;;;;11.77;66.90;99761.09;1752919;81;21607;-67
2021/04/30 05:22:15;;;;;;;10.32;9.30;;;;;;;11.91;66.35;99764.95;1738128;80;21069;-64
2021/04/30 05:24:44;;;;;;;10.38;9.23;;;;;;;12.06;65.78;99764.39;1744284;80;21598;-66
2021/04/30 05:27:12;;;;;;;13.58;9.05;;;;;;;12.14;65.61;99763.41;1773850;81;21006;-64
2021/04/30 05:29:43;;;;;;;16.17;9.63;;;;;;;12.24;65.16;99757.95;1788963;80;21201;-66
2021/04/30 05:32:12;;;;;;;18.12;9.83;;;;;;;12.34;64.97;99759.84;1760880;81;21604;-66
2021/04/30 05:34:41;;;;;;;11.75;9.10;;;;;;;12.48;64.53;99765.41;1732895;82;21586;-65
2021/04/30 05:37:11;;;;;;;10.58;9.50;;;;;;;12.60;64.29;99751.52;1736838;82;21648;-66
2021/04/30 05:39:39;;;;;;;10.80;9.15;;;;;;;12.73;63.78;99758.52;1719649;82;21021;-62
2021/04/30 05:42:08;;;;;;;11.28;8.83;;;;;;;12.83;63.58;99759.05;1723648;82;22163;-64
2021/04/30 05:44:37;;;;;;;9.53;8.63;;;;;;;12.96;63.11;99761.66;1740562;81;21648;-63
2021/04/30 05:47:06;;;;;;;12.78;8.88;;;;;;;13.07;62.73;99753.06;1756122;81;21029;-63
2021/04/30 05:49:36;;;;;;;11.75;9.10;;;;;;;13.20;62.42;99755.18;1751095;80;21543;-61
2021/04/30 05:52:05;;;;;;;10.05;8.98;;;;;;;13.34;61.93;99755.03;1757732;81;21005;-64
2021/04/30 05:54:34;;;;;;;8.90;8.03;;;;;;;13.50;61.32;99758.70;1745407;81;21375;-66
2021/04/30 05:57:04;;;;;;;9.25;7.90;;;;;;;13.63;60.95;99755.05;1727739;83;21653;-65
2021/04/30 05:59:32;;;;;;;12.85;8.53;;;;;;;13.79;60.55;99756.08;1743397;81;21017;-66
2021/04/30 06:02:01;;;;;;;10.75;8.38;;;;;;;13.98;59.81;99761.64;1757688;81;21931;-63
2021/04/30 06:04:30;;;;;;;9.28;8.38;;;;;;;14.17;59.48;99757.15;1772611;81;21628;-63
2021/04/30 06:06:59;;;;;;;11.18;8.35;;;;;;;14.40;58.77;99751.45;1750880;81;21383;-63
2021/04/30 06:09:28;;;;;;;9.13;8.10;;;;;;;14.60;58.08;99751.28;1757405;81;21395;-63
2021/04/30 06:11:56;;;;;;;9.78;8.00;;;;;;;14.82;57.65;99746.03;1741234;81;21065;-63
2021/04/30 06:14:33;;;;;;;15.13;9.30;;;;;;;15.09;57.52;99740.89;1700156;83;21016;-64
2021/04/30 06:17:02;;;;;;;11.95;8.30;;;;;;;15.39;56.46;99737.12;1741453;81;21001;-63
2021/04/30 06:19:31;;;;;;;13.25;8.20;;;;;;;15.63;55.05;99734.31;1745019;81;22373;-63
2021/04/30 06:21:59;;;;;;;11.57;8.33;;;;;;;15.80;54.69;99733.77;1748715;81;21528;-64
2021/04/30 06:24:29;;;;;;;9.40;8.08;;;;;;;15.98;54.24;99735.36;1744977;81;20958;-63
2021/04/30 06:26:58;;;;;;;9.58;7.53;;;;;;;16.13;53.87;99744.56;1757228;81;21539;-63
2021/04/30 06:29:26;;;;;;;8.90;7.62;;;;;;;16.24;53.28;99744.51;1762432;80;21660;-64
2021/04/30 06:31:56;;;;;;;7.65;6.92;;;;;;;16.32;52.97;99743.87;1728051;81;23521;-64
2021/04/30 06:34:26;;;;;;;9.80;7.45;;;;;;;16.38;52.70;99742.04;1747532;80;21556;-64
2021/04/30 06:36:54;;;;;;;10.75;7.37;;;;;;;16.47;52.84;99739.92;1752111;81;21649;-65
2021/04/30 06:39:23;;;;;;;7.92;7.12;;;;;;;16.60;52.17;99734.45;1749854;81;21662;-64
2021/04/30 06:41:53;;;;;;;9.08;7.30;;;;;;;16.63;52.01;99735.02;1749814;81;21595;-64
2021/04/30 06:44:22;;;;;;;8.40;7.25;;;;;;;16.66;52.08;99740.53;1741464;81;21376;-64
2021/04/30 06:46:53;;;;;;;8.33;7.15;;;;;;;16.70;51.99;99736.69;1734678;82;21590;-65
2021/04/30 06:49:21;;;;;;;10.20;7.45;;;;;;;16.74;51.88;99734.63;1758315;81;21035;-65
2021/04/30 06:51:50;;;;;;;10.65;6.80;;;;;;;16.81;51.82;99726.53;1741163;81;21543;-65
2021/04/30 06:54:19;;;;;;;7.20;6.60;;;;;;;16.98;51.46;99721.47;1759334;81;20992;-64
2021/04/30 06:56:47;;;;;;;9.43;6.83;;;;;;;17.28;50.99;99717.92;1727543;82;22244;-64
2021/04/30 06:59:17;;;;;;;8.53;7.37;;;;;;;17.65;49.64;99725.18;1744811;81;21001;-65
2021/04/30 07:01:45;;;;;;;11.48;8.25;;;;;;;17.96;49.46;99722.76;1725394;82;21632;-64
2021/04/30 07:04:14;;;;;;;8.30;7.00;;;;;;;18.24;49.11;99721.03;1747878;82;21029;-63
2021/04/30 07:06:43;;;;;;;10.10;7.80;;;;;;;18.47;48.43;99719.35;1716639;82;21593;-64
2021/04/30 07:09:12;;;;;;;7.45;6.58;;;;;;;18.51;47.48;99712.82;1747192;80;22320;-64
2021/04/30 07:11:41;;;;;;;8.53;6.55;;;;;;;18.52;47.56;99721.91;1714847;82;22224;-64
2021/04/30 07:14:10;;;;;;;9.23;6.50;;;;;;;18.64;47.79;99710.73;1730046;81;21670;-65
2021/04/30 07:16:39;;;;;;;9.23;5.70;;;;;;;18.93;46.94;99715.36;1755591;81;21000;-65
2021/04/30 07:19:09;;;;;;;7.78;6.03;;;;;;;19.17;45.97;99720.10;1746773;81;21516;-65
2021/04/30 07:21:38;;;;;;;10.05;5.87;;;;;;;19.32;45.33;99715.95;1738515;81;21380;-65
2021/04/30 07:24:08;;;;;;;7.15;5.70;;;;;;;19.45;45.60;99710.80;1763442;81;21697;-65
2021/04/30 07:26:37;;;;;;;6.25;5.65;;;;;;;19.60;45.08;99710.13;1751707;81;21496;-66
2021/04/30 07:29:06;;;;;;;6.60;5.45;;;;;;;19.69;44.79;99707.56;1730181;80;21030;-64
2021/04/30 07:31:35;;;;;;;9.00;5.42;;;;;;;19.73;44.22;99710.24;1708619;81;21082;-64
2021/04/30 07:34:05;;;;;;;7.90;4.90;;;;;;;19.68;44.27;99707.23;1732749;82;21209;-64
2021/04/30 07:36:34;;;;;;;7.55;5.58;;;;;;;19.59;44.37;99713.75;1752638;81;21072;-64
2021/04/30 07:39:05;;;;;;;9.38;5.10;;;;;;;19.43;44.47;99714.91;1747364;81;21059;-64
2021/04/30 07:41:33;;;;;;;10.50;5.15;;;;;;;19.25;44.58;99703.00;1721254;82;21142;-64
2021/04/30 07:44:02;;;;;;;10.98;5.42;;;;;;;19.18;45.28;99700.65;1737868;82;21039;-64
2021/04/30 07:46:31;;;;;;;8.10;5.55;;;;;;;19.26;44.79;99698.55;1744519;81;21379;-65
2021/04/30 07:49:00;;;;;;;6.22;4.65;;;;;;;19.29;44.66;99696.94;1729891;82;21114;-64
2021/04/30 07:51:29;;;;;;;10.18;4.47;;;;;;;19.32;44.68;99692.19;1753570;81;21610;-64
2021/04/30 07:53:58;;;;;;;11.53;5.50;;;;;;;19.37;44.15;99692.23;1755726;81;21644;-64
2021/04/30 07:56:26;;;;;;;7.53;4.30;;;;;;;19.43;44.01;99690.31;1749721;81;20933;-64
2021/04/30 07:58:56;;;;;;;13.43;5.10;;;;;;;19.56;43.51;99682.39;1757178;81;22040;-64
2021/04/30 08:01:25;;;;;;;5.97;4.72;;;;;;;19.76;43.22;99688.31;1743406;82;21623;-64
2021/04/30 08:03:58;;;;;;;5.35;3.92;;;;;;;20.03;42.49;99686.52;1724336;82;20982;-64
2021/04/30 08:06:28;;;;;;;9.88;3.95;;;;;;;20.30;42.14;99674.48;1739231;82;21045;-65
2021/04/30 08:08:57;;;;;;;12.33;4.12;;;;;;;20.54;41.44;99673.30;1771167;81;21489;-64
2021/04/30 08:11:26;;;;;;;7.12;3.52;;;;;;;20.63;41.38;99672.34;1748742;82;21484;-64
2021/04/30 08:13:55;;;;;;;7.17;3.98;;;;;;;20.68;41.32;99680.30;1752013;81;21568;-64
2021/04/30 08:16:24;;;;;;;3.52;3.17;;;;;;;20.68;41.33;99669.72;1752075;82;21001;-64
2021/04/30 08:18:53;;;;;;;10.68;3.90;;;;;;;20.64;41.46;99659.45;1741308;82;21083;-65
2021/04/30 08:21:22;;;;;;;5.22;3.80;;;;;;;20.62;41.19;99669.86;1752253;82;21598;-63
2021/04/30 08:23:51;;;;;;;4.42;3.80;;;;;;;20.57;40.91;99660.24;1743485;82;22144;-64
2021/04/30 08:26:19;;;;;;;6.65;4.08;;;;;;;20.54;41.07;99657.42;1760118;81;21688;-64
2021/04/30 08:28:50;;;;;;;7.28;3.80;;;;;;;20.67;41.26;99646.89;1741424;80;21120;-64
2021/04/30 08:31:22;;;;;;;9.63;4.12;;;;;;;20.92;40.52;99649.44;1738412;82;21050;-65
2021/04/30 08:33:51;;;;;;;13.35;4.40;;;;;;;21.08;39.99;99650.48;1757788;80;21505;-64
2021/04/30 08:36:21;;;;;;;7.30;4.12;;;;;;;21.00;40.00;99645.99;1738278;81;21547;-66
2021/04/30 08:38:50;;;;;;;4.95;3.60;;;;;;;20.85;40.50;99651.56;1747917;81;20968;-65
2021/04/30 08:41:19;;;;;;;5.22;3.50;;;;;;;20.80;40.88;99649.89;1753562;81;20944;-65
2021/04/30 08:43:47;;;;;;;6.33;3.60;;;;;;;20.91;40.71;99654.41;1721977;83;21642;-65
2021/04/30 08:46:17;;;;;;;4.67;3.47;;;;;;;20.98;39.48;99655.91;1722952;82;21612;-64
2021/04/30 08:48:47;;;;;;;4.83;3.67;;;;;;;20.87;40.18;99641.16;1738488;82;21248;-65
2021/04/30 08:51:15;;;;;;;5.37;3.70;;;;;;;20.81;40.31;99647.58;1742127;82;21927;-64
2021/04/30 08:53:44;;;;;;;6.65;3.55;;;;;;;20.77;40.37;99647.59;1696592;83;21559;-64
2021/04/30 08:56:16;;;;;;;5.90;3.55;;;;;;;20.74;40.34;99645.27;1722189;83;21587;-66
2021/04/30 08:58:45;;;;;;;8.58;3.58;;;;;;;20.70;40.34;99647.41;1738955;82;21006;-65
2021/04/30 09:01:16;;;;;;;11.33;3.87;;;;;;;20.64;40.20;99646.23;1718430;81;22093;-65
2021/04/30 09:03:50;;;;;;;9.58;3.72;;;;;;;20.59;40.06;99638.43;1713584;83;22061;-64
2021/04/30 09:06:39;;;;;;;10.75;4.17;;;;;;;20.51;40.20;99633.10;1709813;82;21584;-66
2021/04/30 09:09:15;;;;;;;10.40;3.67;;;;;;;20.39;39.90;99642.33;1727347;81;20903;-64
2021/04/30 09:11:48;;;;;;;6.15;3.52;;;;;;;20.21;40.26;99636.58;1748031;81;20957;-65
2021/04/30 09:14:32;;;;;;;7.85;3.80;;;;;;;20.08;40.34;99636.66;1712848;83;21508;-64
2021/04/30 09:17:15;;;;;;;4.37;2.75;;;;;;;19.94;40.78;99616.95;1732398;82;21655;-65
2021/04/30 09:19:56;;;;;;;6.10;3.65;;;;;;;19.89;41.30;99622.70;1727709;80;21006;-65
2021/04/30 09:22:36;;;;;;;6.33;3.60;;;;;;;19.90;41.48;99630.95;1727554;80;21595;-67
2021/04/30 09:25:13;;;;;;;8.43;3.35;;;;;;;19.92;40.92;99625.03;1793150;78;20949;-66
2021/04/30 09:27:47;;;;;;;5.83;3.17;;;;;;;19.94;40.92;99627.52;1781616;79;22063;-67
2021/04/30 09:30:28;;;;;;;8.73;4.17;;;;;;;20.02;41.27;99629.35;1792550;79;21024;-64
2021/04/30 09:33:20;;;;;;;5.72;3.45;;;;;;;20.09;40.94;99629.06;1800586;79;21626;-64
2021/04/30 09:35:57;;;;;;;4.58;3.75;;;;;;;20.04;40.84;99625.56;1783039;78;21473;-64
2021/04/30 09:38:33;;;;;;;9.23;4.30;;;;;;;19.89;41.62;99621.38;1789399;78;20953;-64
2021/04/30 09:41:12;;;;;;;5.80;3.60;;;;;;;19.74;41.55;99612.34;1784626;79;21644;-64
2021/04/30 09:43:49;;;;;;;6.75;4.28;;;;;;;19.55;42.71;99611.23;1720690;83;21538;-65
2021/04/30 09:46:35;;;;;;;9.45;4.45;;;;;;;19.41;42.80;99607.29;1717430;82;20958;-65
2021/04/30 09:49:15;;;;;;;5.92;3.85;;;;;;;19.32;43.41;99600.28;1728215;82;20990;-65
2021/04/30 09:51:52;;;;;;;6.90;4.35;;;;;;;19.26;43.92;99590.32;1729890;81;21605;-64
2021/04/30 09:54:28;;;;;;;4.58;4.17;;;;;;;19.24;44.43;99598.39;1735059;82;21540;-65
2021/04/30 09:57:18;;;;;;;5.05;4.17;;;;;;;19.24;44.18;99593.60;1725401;82;20970;-65
2021/04/30 09:59:57;;;;;;;5.12;4.08;;;;;;;19.18;44.61;99576.59;1786137;78;20945;-64
2021/04/30 10:02:28;;;;;;;34.45;6.03;;;;;;;19.17;44.83;99579.38;1786042;78;21007;-65
2021/04/30 10:04:58;;;;;;;4.95;4.35;;;;;;;19.14;44.83;99572.59;1777242;79;21106;-64
2021/04/30 10:07:32;;;;;;;8.60;4.10;;;;;;;19.10;44.98;99573.05;1769224;79;21348;-64
2021/04/30 10:10:11;;;;;;;5.75;3.50;;;;;;;19.07;45.52;99570.70;1787602;79;20957;-65
2021/04/30 10:12:44;;;;;;;8.00;4.17;;;;;;;19.04;45.11;99572.33;1792862;78;21360;-65
2021/04/30 10:15:21;;;;;;;5.42;3.75;;;;;;;18.98;45.57;99568.48;1780752;79;20945;-64
2021/04/30 10:17:55;;;;;;;8.65;4.10;;;;;;;18.97;46.08;99571.61;1799940;78;21484;-64
2021/04/30 10:20:24;;;;;;;10.03;4.35;;;;;;;19.00;45.80;99557.28;1781174;79;21474;-63
2021/04/30 10:22:54;;;;;;;6.10;3.98;;;;;;;19.02;45.98;99562.41;1799551;79;21009;-64
2021/04/30 10:25:22;;;;;;;12.07;3.65;;;;;;;19.04;46.36;99555.17;1800840;79;21597;-64
2021/04/30 10:27:53;;;;;;;4.60;4.15;;;;;;;19.09;46.53;99566.11;1800596;79;21566;-64
2021/04/30 10:30:35;;;;;;;11.90;4.37;;;;;;;19.16;45.84;99559.25;1800904;79;21064;-64
2021/04/30 10:33:35;;;;;;;6.65;4.08;;;;;;;19.15;45.14;99553.14;1769758;79;21504;-65
2021/04/30 10:36:21;;;;;;;6.45;4.08;;;;;;;19.10;45.44;99554.08;1769296;81;21025;-66
2021/04/30 10:38:54;;;;;;;5.83;3.58;;;;;;;19.05;45.43;99552.88;1769321;81;21791;-65
2021/04/30 10:41:35;;;;;;;5.67;3.72;;;;;;;19.01;45.65;99548.39;1769282;81;20992;-64
2021/04/30 10:44:32;;;;;;;6.55;3.83;;;;;;;19.03;46.23;99554.34;1768094;79;21602;-68
2021/04/30 10:47:19;;;;;;;10.43;3.80;;;;;;;19.06;45.49;99550.09;1790734;79;21455;-68
2021/04/30 10:50:18;;;;;;;8.53;4.17;;;;;;;19.07;45.41;99548.27;1794920;78;20938;-67
2021/04/30 10:52:49;;;;;;;5.87;3.60;;;;;;;19.06;45.49;99546.13;1800801;79;20937;-64
2021/04/30 10:55:20;;;;;;;5.67;3.98;;;;;;;19.08;45.68;99546.81;1750612;79;20878;-71
2021/04/30 10:57:51;;;;;;;8.98;4.15;;;;;;;19.11;45.65;99553.10;1799444;79;21602;-66
2021/04/30 11:00:27;;;;;;;7.45;4.00;;;;;;;19.12;45.28;99536.28;1780385;79;21352;-66
2021/04/30 11:03:24;;;;;;;10.23;4.45;;;;;;;19.13;45.47;99530.52;1717925;82;21063;-65
2021/04/30 11:06:01;;;;;;;8.90;4.28;;;;;;;19.14;45.40;99534.33;1781862;79;21053;-64
